Aeroporto :
LOGIN :

Iscrizione | Disclaimer

   EN    FR    IT 

 










Sommario :    VFR   VFR Marginale   IFR   IFR Intensivo   IFR Molto Intensivo
Visibilità : 
Base nubi : 
>= 8 km
>= 3000ft
5 / 8 km
1000 / 3000 ft
1500m / 5 km
500 / 1000 ft
800 / 1500m
200 / 500 ft
< 800m
< 200 ft
Simboli :   Temporali  Nebbia  Neve Forte  Precipitazioni Forti  Vento > 20 kt
SIGMETs :   Varie  Temporali  Ghiacco  Turbolenza  Onda orograficha  Ceneri Vulcaniche






- Altitudine del aeroporto : 479 ft
- Codice IATA : DOL


LFRG - Deauville

ULTIMO METAR :
  • 210500Z AUTO 12007KT 070V160 1100 R30/1300D BR VV/// 01/01 Q1004

METARs OBSOLETI :
  • 210430Z AUTO 11008KT 080V140 1000 R30/1200D BR VV/// 01/01 Q1004
  • 210400Z AUTO 11008KT 090V150 1000 R30/1300N BR VV/// 01/01 Q1004
  • 210330Z AUTO 12008KT 080V150 1000 R30/1200N BR VV/// 01/01 Q1005
  • 210300Z AUTO 13007KT 070V180 0900 R30/1100D FG VV/// 01/01 Q1005
  • 210230Z AUTO VRB05KT 1000 R30/1200N BR VV/// 01/01 Q1005

Previsioni scadute.
ATIS : +33 2 31 65 65 36



MetMap, La meteo Aeronautica in un colpo d'occhio ! - Copyright ORBIFLY Dicembre 2007 - Disclaimer

ORBIFLY MET'MAP TEAM :

Programmazione e sviluppo : Alexandra Zaïnal
Concezione e sviluppo : Baudouin d'Aumeries
Co-Programmazione e sviluppo : Marc-Olivier Méhu
Supporto tecnico e logistico : Manuel Goepfert
Aiuto per la traduzione : Arnaldo La Scala

Contatto : metmap@orbifly.com




FONTI E CREDITI :

   NOAA